Ristna, Estonia

1:22 AM EEST on July 29, 2016 (GMT +0300)
Kuressaare | | Change Station

Elev 13 ft 58.23 °N, 22.51 °E | Updated 32 minutes ago

Clear
Clear
61 °F
Feels Like 61 °F
N
5
Wind Variable Wind from NW

Today
High -- | Low -- °F
--% Chance of Precip.
Yesterday
High -- | Low -- °F
Precip. -- in
Pressure 29.86 in
Visibility 6.2 miles
Clouds
Dew Point 59 °F
Humidity 94%
Rainfall 0.00 in
Snow Depth Not available.
5:13 AM 10:01 PM
Waning Crescent, 28% visible
METAR EEKE 282150Z AUTO 31004KT 280V340 9999NDV NCD 16/15 Q1011
Pressure 29.86 in
Visibility 6.2 miles
Clouds
Dew Point 59 °F
Humidity 94%
Rainfall 0.00 in
Snow Depth Not available.
5:13 AM 10:01 PM
Waning Crescent, 28% visible
METAR EEKE 282150Z AUTO 31004KT 280V340 9999NDV NCD 16/15 Q1011

10-Day Weather Forecast

×

Almanac

Astronomy

Jul. 29, 2016 Rise Set
Actual Time
Civil Twilight
Nautical Twilight
Astronomical Twilight
Moon
Length of Visible Light
Length of Day
Tomorrow will be .
, % of the Moon is Illuminated

Today's Extremes

Country Highs Country Lows

Community

WunderPhotos

Upload Photos

1,928,220 photos uploaded!

WunderBlog® & News

Nearby

Air Quality

  Air Quality AQ Index Pollutant
Not available.

Snow Depth

Station Depth Elevation

Earthquake Activity

City Distance Mag. Time & Date
Minimum magnitude displayed is 2.5.

Coastal Water Temperatures

Place Temperature

Stations

Nearby Weather Stations

Station Location Temp. Windchill Dew Point Humidity Wind Precip. Elev Updated Type